Abis Bremen — PCJO — position and weather

sailwx.info

Track history (hours):
 
Tides and Currents Weather Stations Pressure Air Temp Water Temp Dewpoint Dewpoint Depression Visibility Wind Speed Wind Dir Waves Ship Positions

Abis Bremen

Last reported at 2019-Mar-21 08:26 UTC. Time now 2019-Mar-22 11:59 UTC.
Position N 42°04' W 009°16'.

Length 90 m; draft 5.2 m.

Type: Ship. MMSI: 246778880.

Date/timePositionNaut miles runAvg speedWind from/ knotsBaromVisibWave heightAir tempDewpointWater temp
2019-Mar-21 08:26N 42°04' W 009°16'510.2
2019-Mar-21 07:57N 42°08' W 009°20'4 9.9
2019-Mar-21 07:30N 42°11' W 009°24'  
2019-Mar-19 01:22N 49°32' W 004°09'3 8.6
2019-Mar-19 01:00N 49°34' W 004°04'5 9.1
2019-Mar-19 00:30N 49°37' W 003°58'5 9.6
2019-Mar-19 00:00N 49°39' W 003°52'510.1
2019-Mar-18 23:30N 49°42' W 003°46'510.5
2019-Mar-18 23:01N 49°45' W 003°39'510.6
2019-Mar-18 22:30N 49°47' W 003°32'510.7
2019-Mar-18 22:00N 49°50' W 003°25'510.4
2019-Mar-18 21:30N 49°53' W 003°18'510.1
2019-Mar-18 21:00N 49°55' W 003°11'5 9.7
2019-Mar-18 20:31N 49°58' W 003°05'5 9.2
2019-Mar-18 20:00N 50°00' W 002°59'4 8.5
2019-Mar-18 19:30N 50°02' W 002°52'4 8.0
2019-Mar-18 19:00N 50°03' W 002°46'55 8.4
2019-Mar-18 12:25N 50°17' W 001°23'3211.6
2019-Mar-18 09:39N 50°26' W 000°35'210.2
2019-Mar-18 09:26N 50°26' W 000°31'5 9.7
2019-Mar-18 08:57N 50°28' W 000°24'5 9.0
2019-Mar-18 08:21N 50°29' W 000°16'25 8.1
2019-Mar-18 05:18N 50°36' E 000°21'3 8.9
2019-Mar-18 04:56N 50°37' E 000°26'4 9.4
2019-Mar-18 04:30N 50°38' E 000°32'510.0
2019-Mar-18 04:01N 50°40' E 000°39'510.6
2019-Mar-18 03:30N 50°43' E 000°46'511.1
2019-Mar-18 03:01N 50°47' E 000°53'611.3
2019-Mar-18 02:30N 50°50' E 001°01'611.2
2019-Mar-18 02:00N 50°53' E 001°08'510.8
2019-Mar-18 01:31N 50°57' E 001°14'510.4
2019-Mar-18 01:00N 51°00' E 001°20'5 9.9
2019-Mar-18 00:31N 51°03' E 001°26'5 9.5
2019-Mar-18 00:00N 51°07' E 001°32'4 8.9
2019-Mar-17 23:30N 51°10' E 001°37'4 8.4
2019-Mar-17 23:00N 51°12' E 001°42'4 8.0
2019-Mar-17 22:31N 51°15' E 001°46'4 8.3
2019-Mar-17 22:00N 51°19' E 001°49'4 8.5
2019-Mar-17 21:30N 51°23' E 001°52'4 8.8
2019-Mar-17 21:00N 51°27' E 001°55'5 9.0
2019-Mar-17 20:31N 51°30' E 001°60'5 9.8
2019-Mar-17 20:00N 51°34' E 002°05'510.1
2019-Mar-17 19:29N 51°38' E 002°11'1810.6
2019-Mar-17 17:44N 51°52' E 002°30'310.9
2019-Mar-17 17:30N 51°54' E 002°32'610.9
2019-Mar-17 16:58N 51°60' E 002°36'610.9
2019-Mar-17 16:27N 52°05' E 002°39'113 7.3
2019-Mar-17 01:01N 53°30' E 004°43'0 2.9
2019-Mar-17 01:01N 53°30' E 004°43'1 2.1
2019-Mar-17 00:30N 53°31' E 004°44'1 1.4
2019-Mar-17 00:00N 53°31' E 004°45'1 1.4
2019-Mar-16 23:30N 53°32' E 004°46'1 1.1
2019-Mar-16 23:01N 53°32' E 004°47'1 1.2
2019-Mar-16 22:30N 53°32' E 004°48'1 1.6
2019-Mar-16 22:00N 53°32' E 004°49'1 2.4
2019-Mar-16 21:30N 53°33' E 004°51'1 2.3
2019-Mar-16 21:00N 53°33' E 004°53'4 2.6
2019-Mar-16 19:37N 53°35' E 004°58'0 2.6
2019-Mar-16 19:27N 53°35' E 004°59'2 3.4
2019-Mar-16 19:00N 53°35' E 005°01'2 3.2
2019-Mar-16 18:30N 53°36' E 005°04'2 3.6
2019-Mar-16 18:00N 53°37' E 005°07'2 3.5
2019-Mar-16 17:30N 53°37' E 005°09'2 3.8
2019-Mar-16 17:00N 53°38' E 005°13'2 3.5
2019-Mar-16 16:30N 53°38' E 005°15'2 3.3
2019-Mar-16 16:00N 53°39' E 005°18'2 3.2
2019-Mar-16 15:30N 53°39' E 005°21'2 3.3
2019-Mar-16 15:00N 53°40' E 005°23'2 3.1
2019-Mar-16 14:30N 53°40' E 005°26'2 3.8
2019-Mar-16 14:00N 53°41' E 005°29'2 4.3
2019-Mar-16 13:30N 53°41' E 005°32'3 6.5
2019-Mar-16 13:00N 53°42' E 005°38'4 7.1
2019-Mar-16 12:30N 53°43' E 005°44'4 7.5
2019-Mar-16 11:58N 53°44' E 005°50'89 6.7
2019-Mar-15 22:40N 54°01' E 008°18'1110.6
2019-Mar-15 21:40N 53°58' E 008°36'212.1
2019-Mar-15 21:29N 53°57' E 008°39'612.1
2019-Mar-15 20:59N 53°52' E 008°45'510.7
2019-Mar-15 20:30N 53°51' E 008°53'5 9.7
2019-Mar-15 20:00N 53°52' E 009°01'5 8.8
2019-Mar-15 19:28N 53°53' E 009°08'0 0.4
2019-Mar-15 18:24N 53°54' E 009°09'2 2.7
2019-Mar-15 17:50N 53°55' E 009°11'3 7.5
2019-Mar-15 17:24N 53°57' E 009°14'4 8.3
2019-Mar-15 16:58N 54°00' E 009°18'4 8.0
2019-Mar-15 16:29N 54°04' E 009°19'4 8.3
2019-Mar-15 15:59N 54°08' E 009°20'4 8.3
2019-Mar-15 15:30N 54°10' E 009°26'4 8.5
2019-Mar-15 15:00N 54°12' E 009°33'4 8.1
2019-Mar-15 14:30N 54°15' E 009°37'3 6.4
2019-Mar-15 14:00N 54°17' E 009°40'0 0.0
2019-Mar-15 13:30N 54°17' E 009°40'0 0.0
2019-Mar-15 13:00N 54°17' E 009°40'0 0.0
2019-Mar-15 12:30N 54°17' E 009°40'0 0.0
2019-Mar-15 12:00N 54°17' E 009°40'0 0.0
2019-Mar-15 11:30N 54°17' E 009°40'0 0.0
2019-Mar-15 11:00N 54°17' E 009°40'0 0.0
2019-Mar-15 10:30N 54°17' E 009°40'0 0.0
2019-Mar-15 10:00N 54°17' E 009°40'0 0.0
2019-Mar-15 09:30N 54°17' E 009°40'0 0.0
2019-Mar-15 09:00N 54°17' E 009°40'0 0.0
2019-Mar-15 08:30N 54°17' E 009°40'0 0.0
2019-Mar-15 08:00N 54°17' E 009°40'0 0.0
2019-Mar-15 07:30N 54°17' E 009°40'0 0.0
2019-Mar-15 07:00N 54°17' E 009°40'0 0.0
2019-Mar-15 06:30N 54°17' E 009°40'0 0.0
2019-Mar-15 06:00N 54°17' E 009°40'0 0.0
2019-Mar-15 05:30N 54°17' E 009°40'0 0.0
2019-Mar-15 05:00N 54°17' E 009°40'0 0.0
2019-Mar-15 04:27N 54°17' E 009°40'0 0.0
2019-Mar-15 04:00N 54°17' E 009°40'0 0.0
2019-Mar-15 03:30N 54°17' E 009°40'0 0.0
2019-Mar-15 03:00N 54°17' E 009°40'0 0.0
2019-Mar-15 02:27N 54°17' E 009°40'0 0.0
2019-Mar-15 02:00N 54°17' E 009°40'0 0.0
2019-Mar-15 01:30N 54°17' E 009°40'0 0.0
2019-Mar-15 01:00N 54°17' E 009°40'0 0.0
2019-Mar-15 00:30N 54°17' E 009°40'0 0.0
2019-Mar-15 00:00N 54°17' E 009°40'0 0.0
2019-Mar-14 23:30N 54°17' E 009°40'0 0.0
2019-Mar-14 23:00N 54°17' E 009°40'0 0.0
2019-Mar-14 22:30N 54°17' E 009°40'0 0.0
2019-Mar-14 22:00N 54°17' E 009°40'0 0.0
2019-Mar-14 21:30N 54°17' E 009°40'0 0.0
2019-Mar-14 21:00N 54°17' E 009°40'0 0.0
2019-Mar-14 20:30N 54°17' E 009°40'0 0.0
2019-Mar-14 20:00N 54°17' E 009°40'0 0.0
2019-Mar-14 19:30N 54°17' E 009°40'0 0.0
2019-Mar-14 19:00N 54°17' E 009°40'0 0.0
2019-Mar-14 18:30N 54°17' E 009°40'0 0.0
2019-Mar-14 18:00N 54°17' E 009°40'0 0.0
2019-Mar-14 17:30N 54°17' E 009°40'0 0.0
2019-Mar-14 17:00N 54°17' E 009°40'0 0.0
2019-Mar-14 16:30N 54°17' E 009°40'0 0.0
2019-Mar-14 16:00N 54°17' E 009°40'0 0.0
2019-Mar-14 15:30N 54°17' E 009°40'0 0.0
2019-Mar-14 15:00N 54°17' E 009°40'0 0.0
2019-Mar-14 14:30N 54°17' E 009°40'0 0.0
2019-Mar-14 14:00N 54°17' E 009°40'0 0.0
2019-Mar-14 13:30N 54°17' E 009°40'0 0.0
2019-Mar-14 13:00N 54°17' E 009°40'0 0.0
2019-Mar-14 12:30N 54°17' E 009°40'0 0.0
2019-Mar-14 12:00N 54°17' E 009°40'0 0.0
2019-Mar-14 11:30N 54°17' E 009°40'0 0.0
2019-Mar-14 11:00N 54°17' E 009°40'1 1.1
2019-Mar-14 10:30N 54°17' E 009°39'3 5.0
2019-Mar-14 10:00N 54°15' E 009°37'4 7.4
2019-Mar-14 09:30N 54°12' E 009°34'4 8.2
2019-Mar-14 09:00N 54°11' E 009°27'4 8.1
2019-Mar-14 08:30N 54°09' E 009°21'8 8.1
2019-Mar-14 07:32N 54°01' E 009°18'2 8.3
2019-Mar-14 07:21N 53°60' E 009°17'3 8.3
2019-Mar-14 07:01N 53°57' E 009°14'3 4.9
2019-Mar-14 06:30N 53°55' E 009°12'2 4.8
2019-Mar-14 06:00N 53°54' E 009°09'1 1.9
2019-Mar-14 05:28N 53°53' E 009°07'4 8.9
2019-Mar-14 05:00N 53°52' E 009°01'714.2
2019-Mar-14 04:29N 53°50' E 008°48'77 6.6
2019-Mar-13 16:52N 53°33' E 006°42'3 8.6
2019-Mar-13 16:30N 53°31' E 006°47'511.1
2019-Mar-13 16:00N 53°27' E 006°53'510.9
2019-Mar-13 15:30N 53°23' E 006°58'4 8.9
2019-Mar-13 15:00N 53°19' E 007°04'5 9.1
2019-Mar-13 14:30N 53°20' E 007°11'0 0.8
2019-Mar-13 13:58N 53°20' E 007°12'0 0.0
2019-Mar-13 13:28N 53°20' E 007°12'0 0.0
2019-Mar-13 12:55N 53°20' E 007°12'0 0.0
2019-Mar-13 12:28N 53°20' E 007°12'0 0.0
2019-Mar-13 11:58N 53°20' E 007°12'0 0.0
2019-Mar-13 11:28N 53°20' E 007°12'0 0.0
2019-Mar-13 10:58N 53°20' E 007°12'0 0.0
2019-Mar-13 10:25N 53°20' E 007°12'0 0.0
2019-Mar-13 09:58N 53°20' E 007°12'0 0.0
2019-Mar-13 09:28N 53°20' E 007°12'0 0.0
2019-Mar-13 08:58N 53°20' E 007°12'0 0.0
2019-Mar-13 08:28N 53°20' E 007°12'0 0.0
2019-Mar-13 07:58N 53°20' E 007°12'0 0.0
2019-Mar-13 07:28N 53°20' E 007°12'0 0.0
2019-Mar-13 06:58N 53°20' E 007°12'0 0.0
2019-Mar-13 06:28N 53°20' E 007°12'0 0.0
2019-Mar-13 05:58N 53°20' E 007°12'0 0.0
2019-Mar-13 05:28N 53°20' E 007°12'0 0.0
2019-Mar-13 04:58N 53°20' E 007°12'0 0.0
2019-Mar-13 04:28N 53°20' E 007°12'0 0.0
2019-Mar-13 03:58N 53°20' E 007°12'0 0.0
2019-Mar-13 03:28N 53°20' E 007°12'0 0.0
2019-Mar-13 02:58N 53°20' E 007°12'0 0.0
2019-Mar-13 01:58N 53°20' E 007°12'0 0.0
2019-Mar-13 01:25N 53°20' E 007°12'0 0.0
2019-Mar-13 00:58N 53°20' E 007°12'0 0.0
2019-Mar-13 00:28N 53°20' E 007°12'0 0.0
2019-Mar-12 23:58N 53°20' E 007°12'0 0.0
2019-Mar-12 23:28N 53°20' E 007°12'0 0.0
2019-Mar-12 22:58N 53°20' E 007°12'0 0.0
2019-Mar-12 22:28N 53°20' E 007°12'0 0.0
2019-Mar-12 21:58N 53°20' E 007°12'0 0.0
2019-Mar-12 21:28N 53°20' E 007°12'0 0.0
2019-Mar-12 20:58N 53°20' E 007°12'0 0.0
2019-Mar-12 20:28N 53°20' E 007°12'0 0.0
2019-Mar-12 19:58N 53°20' E 007°12'0 0.0
2019-Mar-12 19:31N 53°20' E 007°12'0 0.8
2019-Mar-12 19:01N 53°20' E 007°11'2 4.4
2019-Mar-12 18:31N 53°20' E 007°08'4 7.6
2019-Mar-12 18:00N 53°20' E 007°01'3 6.9
2019-Mar-12 17:31N 53°23' E 006°58'4 7.7
2019-Mar-12 17:00N 53°26' E 006°55'4 8.0
2019-Mar-12 16:31N 53°29' E 006°50'4 8.5
2019-Mar-12 16:00N 53°31' E 006°45'3710.1
2019-Mar-12 12:17N 53°36' E 005°42'312.5
2019-Mar-12 12:00N 53°35' E 005°37'612.9
2019-Mar-12 11:30N 53°33' E 005°26'613.0
2019-Mar-12 11:00N 53°31' E 005°16'712.9
2019-Mar-12 10:30N 53°29' E 005°06'612.5
2019-Mar-12 10:00N 53°27' E 004°56'812.0
2019-Mar-12 09:23N 53°23' E 004°45'1013.0
2019-Mar-12 08:38N 53°15' E 004°37'213.5
2019-Mar-12 08:30N 53°13' E 004°36'713.3
2019-Mar-12 08:00N 53°07' E 004°30'1113.3
2019-Mar-12 07:10N 52°58' E 004°21'213.5
2019-Mar-12 07:00N 52°56' E 004°19'1313.1
2019-Mar-12 06:01N 52°45' E 004°07'513.2
2019-Mar-12 05:36N 52°41' E 004°01'213.3
2019-Mar-12 05:26N 52°40' E 003°59'613.2
2019-Mar-12 05:01N 52°35' E 003°53'813.3
2019-Mar-12 04:25N 52°30' E 003°44'613.1
2019-Mar-12 03:59N 52°26' E 003°37'1112.6
2019-Mar-12 03:07N 52°18' E 003°25'212.0
2019-Mar-12 02:58N 52°17' E 003°23'3810.8
2019-Mar-11 23:26N 51°58' E 002°29'610.3
2019-Mar-11 22:49N 51°55' E 002°20'310.7
2019-Mar-11 22:30N 51°54' E 002°14'510.9
2019-Mar-11 22:00N 51°52' E 002°06'510.9
2019-Mar-11 21:30N 51°50' E 001°58'611.2
2019-Mar-11 21:00N 51°48' E 001°49'612.1
2019-Mar-11 20:30N 51°50' E 001°40'611.8
2019-Mar-11 20:00N 51°48' E 001°31'713.3
2019-Mar-11 19:30N 51°43' E 001°23'713.5
2019-Mar-11 19:00N 51°38' E 001°15'714.0
2019-Mar-11 18:31N 51°34' E 001°07'713.9
2019-Mar-11 18:01N 51°30' E 000°57'713.4
2019-Mar-11 17:30N 51°28' E 000°47'4 7.8
2019-Mar-11 17:00N 51°25' E 000°43'3 5.6
2019-Mar-11 16:30N 51°23' E 000°46'0 0.5
2019-Mar-11 16:00N 51°22' E 000°46'0 0.0
2019-Mar-11 15:30N 51°22' E 000°46'0 0.0
2019-Mar-11 15:00N 51°22' E 000°46'0 0.0
2019-Mar-11 14:30N 51°22' E 000°46'0 0.0
2019-Mar-11 14:00N 51°22' E 000°46'0 0.0
2019-Mar-11 13:30N 51°22' E 000°46'0 0.0
2019-Mar-11 13:00N 51°22' E 000°46'0 0.0
2019-Mar-11 12:30N 51°22' E 000°46'0 0.0
2019-Mar-11 12:00N 51°22' E 000°46'0 0.0
2019-Mar-11 11:30N 51°22' E 000°46'0 0.0
2019-Mar-11 11:00N 51°22' E 000°46'0 0.0
2019-Mar-11 10:30N 51°22' E 000°46'0 0.0
2019-Mar-11 10:00N 51°22' E 000°46'0 0.0
2019-Mar-11 09:30N 51°22' E 000°46'0 0.0
2019-Mar-11 09:00N 51°22' E 000°46'0 0.0
2019-Mar-11 08:30N 51°22' E 000°46'  
Track history (hours):
 
Tides and Currents Weather Stations Pressure Air Temp Water Temp Dewpoint Dewpoint Depression Visibility Wind Speed Wind Dir Waves Ship Positions

Abis Bremen

Last reported at 2019-Mar-21 08:26 UTC. Time now 2019-Mar-22 11:59 UTC.
Position N 42°04' W 009°16'.

Length 90 m; draft 5.2 m.

Type: Ship. MMSI: 246778880.

Date/timePositionNaut miles runAvg speedWind from/ knotsBaromVisibWave heightAir tempDewpointWater temp
2019-Mar-21 08:26N 42°04' W 009°16'510.2
2019-Mar-21 07:57N 42°08' W 009°20'4 9.9
2019-Mar-21 07:30N 42°11' W 009°24'  
2019-Mar-19 01:22N 49°32' W 004°09'3 8.6
2019-Mar-19 01:00N 49°34' W 004°04'5 9.1
2019-Mar-19 00:30N 49°37' W 003°58'5 9.6
2019-Mar-19 00:00N 49°39' W 003°52'510.1
2019-Mar-18 23:30N 49°42' W 003°46'510.5
2019-Mar-18 23:01N 49°45' W 003°39'510.6
2019-Mar-18 22:30N 49°47' W 003°32'510.7
2019-Mar-18 22:00N 49°50' W 003°25'510.4
2019-Mar-18 21:30N 49°53' W 003°18'510.1
2019-Mar-18 21:00N 49°55' W 003°11'5 9.7
2019-Mar-18 20:31N 49°58' W 003°05'5 9.2
2019-Mar-18 20:00N 50°00' W 002°59'4 8.5
2019-Mar-18 19:30N 50°02' W 002°52'4 8.0
2019-Mar-18 19:00N 50°03' W 002°46'55 8.4
2019-Mar-18 12:25N 50°17' W 001°23'3211.6
2019-Mar-18 09:39N 50°26' W 000°35'210.2
2019-Mar-18 09:26N 50°26' W 000°31'5 9.7
2019-Mar-18 08:57N 50°28' W 000°24'5 9.0
2019-Mar-18 08:21N 50°29' W 000°16'25 8.1
2019-Mar-18 05:18N 50°36' E 000°21'3 8.9
2019-Mar-18 04:56N 50°37' E 000°26'4 9.4
2019-Mar-18 04:30N 50°38' E 000°32'510.0
2019-Mar-18 04:01N 50°40' E 000°39'510.6
2019-Mar-18 03:30N 50°43' E 000°46'511.1
2019-Mar-18 03:01N 50°47' E 000°53'611.3
2019-Mar-18 02:30N 50°50' E 001°01'611.2
2019-Mar-18 02:00N 50°53' E 001°08'510.8
2019-Mar-18 01:31N 50°57' E 001°14'510.4
2019-Mar-18 01:00N 51°00' E 001°20'5 9.9
2019-Mar-18 00:31N 51°03' E 001°26'5 9.5
2019-Mar-18 00:00N 51°07' E 001°32'4 8.9
2019-Mar-17 23:30N 51°10' E 001°37'4 8.4
2019-Mar-17 23:00N 51°12' E 001°42'4 8.0
2019-Mar-17 22:31N 51°15' E 001°46'4 8.3
2019-Mar-17 22:00N 51°19' E 001°49'4 8.5
2019-Mar-17 21:30N 51°23' E 001°52'4 8.8
2019-Mar-17 21:00N 51°27' E 001°55'5 9.0
2019-Mar-17 20:31N 51°30' E 001°60'5 9.8
2019-Mar-17 20:00N 51°34' E 002°05'510.1
2019-Mar-17 19:29N 51°38' E 002°11'1810.6
2019-Mar-17 17:44N 51°52' E 002°30'310.9
2019-Mar-17 17:30N 51°54' E 002°32'610.9
2019-Mar-17 16:58N 51°60' E 002°36'610.9
2019-Mar-17 16:27N 52°05' E 002°39'113 7.3
2019-Mar-17 01:01N 53°30' E 004°43'0 2.9
2019-Mar-17 01:01N 53°30' E 004°43'1 2.1
2019-Mar-17 00:30N 53°31' E 004°44'1 1.4
2019-Mar-17 00:00N 53°31' E 004°45'1 1.4
2019-Mar-16 23:30N 53°32' E 004°46'1 1.1
2019-Mar-16 23:01N 53°32' E 004°47'1 1.2
2019-Mar-16 22:30N 53°32' E 004°48'1 1.6
2019-Mar-16 22:00N 53°32' E 004°49'1 2.4
2019-Mar-16 21:30N 53°33' E 004°51'1 2.3
2019-Mar-16 21:00N 53°33' E 004°53'4 2.6
2019-Mar-16 19:37N 53°35' E 004°58'0 2.6
2019-Mar-16 19:27N 53°35' E 004°59'2 3.4
2019-Mar-16 19:00N 53°35' E 005°01'2 3.2
2019-Mar-16 18:30N 53°36' E 005°04'2 3.6
2019-Mar-16 18:00N 53°37' E 005°07'2 3.5
2019-Mar-16 17:30N 53°37' E 005°09'2 3.8
2019-Mar-16 17:00N 53°38' E 005°13'2 3.5
2019-Mar-16 16:30N 53°38' E 005°15'2 3.3
2019-Mar-16 16:00N 53°39' E 005°18'2 3.2
2019-Mar-16 15:30N 53°39' E 005°21'2 3.3
2019-Mar-16 15:00N 53°40' E 005°23'2 3.1
2019-Mar-16 14:30N 53°40' E 005°26'2 3.8
2019-Mar-16 14:00N 53°41' E 005°29'2 4.3
2019-Mar-16 13:30N 53°41' E 005°32'3 6.5
2019-Mar-16 13:00N 53°42' E 005°38'4 7.1
2019-Mar-16 12:30N 53°43' E 005°44'4 7.5
2019-Mar-16 11:58N 53°44' E 005°50'89 6.7
2019-Mar-15 22:40N 54°01' E 008°18'1110.6
2019-Mar-15 21:40N 53°58' E 008°36'212.1
2019-Mar-15 21:29N 53°57' E 008°39'612.1
2019-Mar-15 20:59N 53°52' E 008°45'510.7
2019-Mar-15 20:30N 53°51' E 008°53'5 9.7
2019-Mar-15 20:00N 53°52' E 009°01'5 8.8
2019-Mar-15 19:28N 53°53' E 009°08'0 0.4
2019-Mar-15 18:24N 53°54' E 009°09'2 2.7
2019-Mar-15 17:50N 53°55' E 009°11'3 7.5
2019-Mar-15 17:24N 53°57' E 009°14'4 8.3
2019-Mar-15 16:58N 54°00' E 009°18'4 8.0
2019-Mar-15 16:29N 54°04' E 009°19'4 8.3
2019-Mar-15 15:59N 54°08' E 009°20'4 8.3
2019-Mar-15 15:30N 54°10' E 009°26'4 8.5
2019-Mar-15 15:00N 54°12' E 009°33'4 8.1
2019-Mar-15 14:30N 54°15' E 009°37'3 6.4
2019-Mar-15 14:00N 54°17' E 009°40'0 0.0
2019-Mar-15 13:30N 54°17' E 009°40'0 0.0
2019-Mar-15 13:00N 54°17' E 009°40'0 0.0
2019-Mar-15 12:30N 54°17' E 009°40'0 0.0
2019-Mar-15 12:00N 54°17' E 009°40'0 0.0
2019-Mar-15 11:30N 54°17' E 009°40'0 0.0
2019-Mar-15 11:00N 54°17' E 009°40'0 0.0
2019-Mar-15 10:30N 54°17' E 009°40'0 0.0
2019-Mar-15 10:00N 54°17' E 009°40'0 0.0
2019-Mar-15 09:30N 54°17' E 009°40'0 0.0
2019-Mar-15 09:00N 54°17' E 009°40'0 0.0
2019-Mar-15 08:30N 54°17' E 009°40'0 0.0
2019-Mar-15 08:00N 54°17' E 009°40'0 0.0
2019-Mar-15 07:30N 54°17' E 009°40'0 0.0
2019-Mar-15 07:00N 54°17' E 009°40'0 0.0
2019-Mar-15 06:30N 54°17' E 009°40'0 0.0
2019-Mar-15 06:00N 54°17' E 009°40'0 0.0
2019-Mar-15 05:30N 54°17' E 009°40'0 0.0
2019-Mar-15 05:00N 54°17' E 009°40'0 0.0
2019-Mar-15 04:27N 54°17' E 009°40'0 0.0
2019-Mar-15 04:00N 54°17' E 009°40'0 0.0
2019-Mar-15 03:30N 54°17' E 009°40'0 0.0
2019-Mar-15 03:00N 54°17' E 009°40'0 0.0
2019-Mar-15 02:27N 54°17' E 009°40'0 0.0
2019-Mar-15 02:00N 54°17' E 009°40'0 0.0
2019-Mar-15 01:30N 54°17' E 009°40'0 0.0
2019-Mar-15 01:00N 54°17' E 009°40'0 0.0
2019-Mar-15 00:30N 54°17' E 009°40'0 0.0
2019-Mar-15 00:00N 54°17' E 009°40'0 0.0
2019-Mar-14 23:30N 54°17' E 009°40'0 0.0
2019-Mar-14 23:00N 54°17' E 009°40'0 0.0
2019-Mar-14 22:30N 54°17' E 009°40'0 0.0
2019-Mar-14 22:00N 54°17' E 009°40'0 0.0
2019-Mar-14 21:30N 54°17' E 009°40'0 0.0
2019-Mar-14 21:00N 54°17' E 009°40'0 0.0
2019-Mar-14 20:30N 54°17' E 009°40'0 0.0
2019-Mar-14 20:00N 54°17' E 009°40'0 0.0
2019-Mar-14 19:30N 54°17' E 009°40'0 0.0
2019-Mar-14 19:00N 54°17' E 009°40'0 0.0
2019-Mar-14 18:30N 54°17' E 009°40'0 0.0
2019-Mar-14 18:00N 54°17' E 009°40'0 0.0
2019-Mar-14 17:30N 54°17' E 009°40'0 0.0
2019-Mar-14 17:00N 54°17' E 009°40'0 0.0
2019-Mar-14 16:30N 54°17' E 009°40'0 0.0
2019-Mar-14 16:00N 54°17' E 009°40'0 0.0
2019-Mar-14 15:30N 54°17' E 009°40'0 0.0
2019-Mar-14 15:00N 54°17' E 009°40'0 0.0
2019-Mar-14 14:30N 54°17' E 009°40'0 0.0
2019-Mar-14 14:00N 54°17' E 009°40'0 0.0
2019-Mar-14 13:30N 54°17' E 009°40'0 0.0
2019-Mar-14 13:00N 54°17' E 009°40'0 0.0
2019-Mar-14 12:30N 54°17' E 009°40'0 0.0
2019-Mar-14 12:00N 54°17' E 009°40'0 0.0
2019-Mar-14 11:30N 54°17' E 009°40'0 0.0
2019-Mar-14 11:00N 54°17' E 009°40'1 1.1
2019-Mar-14 10:30N 54°17' E 009°39'3 5.0
2019-Mar-14 10:00N 54°15' E 009°37'4 7.4
2019-Mar-14 09:30N 54°12' E 009°34'4 8.2
2019-Mar-14 09:00N 54°11' E 009°27'4 8.1
2019-Mar-14 08:30N 54°09' E 009°21'8 8.1
2019-Mar-14 07:32N 54°01' E 009°18'2 8.3
2019-Mar-14 07:21N 53°60' E 009°17'3 8.3
2019-Mar-14 07:01N 53°57' E 009°14'3 4.9
2019-Mar-14 06:30N 53°55' E 009°12'2 4.8
2019-Mar-14 06:00N 53°54' E 009°09'1 1.9
2019-Mar-14 05:28N 53°53' E 009°07'4 8.9
2019-Mar-14 05:00N 53°52' E 009°01'714.2
2019-Mar-14 04:29N 53°50' E 008°48'77 6.6
2019-Mar-13 16:52N 53°33' E 006°42'3 8.6
2019-Mar-13 16:30N 53°31' E 006°47'511.1
2019-Mar-13 16:00N 53°27' E 006°53'510.9
2019-Mar-13 15:30N 53°23' E 006°58'4 8.9
2019-Mar-13 15:00N 53°19' E 007°04'5 9.1
2019-Mar-13 14:30N 53°20' E 007°11'0 0.8
2019-Mar-13 13:58N 53°20' E 007°12'0 0.0
2019-Mar-13 13:28N 53°20' E 007°12'0 0.0
2019-Mar-13 12:55N 53°20' E 007°12'0 0.0
2019-Mar-13 12:28N 53°20' E 007°12'0 0.0
2019-Mar-13 11:58N 53°20' E 007°12'0 0.0
2019-Mar-13 11:28N 53°20' E 007°12'0 0.0
2019-Mar-13 10:58N 53°20' E 007°12'0 0.0
2019-Mar-13 10:25N 53°20' E 007°12'0 0.0
2019-Mar-13 09:58N 53°20' E 007°12'0 0.0
2019-Mar-13 09:28N 53°20' E 007°12'0 0.0
2019-Mar-13 08:58N 53°20' E 007°12'0 0.0
2019-Mar-13 08:28N 53°20' E 007°12'0 0.0
2019-Mar-13 07:58N 53°20' E 007°12'0 0.0
2019-Mar-13 07:28N 53°20' E 007°12'0 0.0
2019-Mar-13 06:58N 53°20' E 007°12'0 0.0
2019-Mar-13 06:28N 53°20' E 007°12'0 0.0
2019-Mar-13 05:58N 53°20' E 007°12'0 0.0
2019-Mar-13 05:28N 53°20' E 007°12'0 0.0
2019-Mar-13 04:58N 53°20' E 007°12'0 0.0
2019-Mar-13 04:28N 53°20' E 007°12'0 0.0
2019-Mar-13 03:58N 53°20' E 007°12'0 0.0
2019-Mar-13 03:28N 53°20' E 007°12'0 0.0
2019-Mar-13 02:58N 53°20' E 007°12'0 0.0
2019-Mar-13 01:58N 53°20' E 007°12'0 0.0
2019-Mar-13 01:25N 53°20' E 007°12'0 0.0
2019-Mar-13 00:58N 53°20' E 007°12'0 0.0
2019-Mar-13 00:28N 53°20' E 007°12'0 0.0
2019-Mar-12 23:58N 53°20' E 007°12'0 0.0
2019-Mar-12 23:28N 53°20' E 007°12'0 0.0
2019-Mar-12 22:58N 53°20' E 007°12'0 0.0
2019-Mar-12 22:28N 53°20' E 007°12'0 0.0
2019-Mar-12 21:58N 53°20' E 007°12'0 0.0
2019-Mar-12 21:28N 53°20' E 007°12'0 0.0
2019-Mar-12 20:58N 53°20' E 007°12'0 0.0
2019-Mar-12 20:28N 53°20' E 007°12'0 0.0
2019-Mar-12 19:58N 53°20' E 007°12'0 0.0
2019-Mar-12 19:31N 53°20' E 007°12'0 0.8
2019-Mar-12 19:01N 53°20' E 007°11'2 4.4
2019-Mar-12 18:31N 53°20' E 007°08'4 7.6
2019-Mar-12 18:00N 53°20' E 007°01'3 6.9
2019-Mar-12 17:31N 53°23' E 006°58'4 7.7
2019-Mar-12 17:00N 53°26' E 006°55'4 8.0
2019-Mar-12 16:31N 53°29' E 006°50'4 8.5
2019-Mar-12 16:00N 53°31' E 006°45'3710.1
2019-Mar-12 12:17N 53°36' E 005°42'312.5
2019-Mar-12 12:00N 53°35' E 005°37'612.9
2019-Mar-12 11:30N 53°33' E 005°26'613.0
2019-Mar-12 11:00N 53°31' E 005°16'712.9
2019-Mar-12 10:30N 53°29' E 005°06'612.5
2019-Mar-12 10:00N 53°27' E 004°56'812.0
2019-Mar-12 09:23N 53°23' E 004°45'1013.0
2019-Mar-12 08:38N 53°15' E 004°37'213.5
2019-Mar-12 08:30N 53°13' E 004°36'713.3
2019-Mar-12 08:00N 53°07' E 004°30'1113.3
2019-Mar-12 07:10N 52°58' E 004°21'213.5
2019-Mar-12 07:00N 52°56' E 004°19'1313.1
2019-Mar-12 06:01N 52°45' E 004°07'513.2
2019-Mar-12 05:36N 52°41' E 004°01'213.3
2019-Mar-12 05:26N 52°40' E 003°59'613.2
2019-Mar-12 05:01N 52°35' E 003°53'813.3
2019-Mar-12 04:25N 52°30' E 003°44'613.1
2019-Mar-12 03:59N 52°26' E 003°37'1112.6
2019-Mar-12 03:07N 52°18' E 003°25'212.0
2019-Mar-12 02:58N 52°17' E 003°23'3810.8
2019-Mar-11 23:26N 51°58' E 002°29'610.3
2019-Mar-11 22:49N 51°55' E 002°20'310.7
2019-Mar-11 22:30N 51°54' E 002°14'510.9
2019-Mar-11 22:00N 51°52' E 002°06'510.9
2019-Mar-11 21:30N 51°50' E 001°58'611.2
2019-Mar-11 21:00N 51°48' E 001°49'612.1
2019-Mar-11 20:30N 51°50' E 001°40'611.8
2019-Mar-11 20:00N 51°48' E 001°31'713.3
2019-Mar-11 19:30N 51°43' E 001°23'713.5
2019-Mar-11 19:00N 51°38' E 001°15'714.0
2019-Mar-11 18:31N 51°34' E 001°07'713.9
2019-Mar-11 18:01N 51°30' E 000°57'713.4
2019-Mar-11 17:30N 51°28' E 000°47'4 7.8
2019-Mar-11 17:00N 51°25' E 000°43'3 5.6
2019-Mar-11 16:30N 51°23' E 000°46'0 0.5
2019-Mar-11 16:00N 51°22' E 000°46'0 0.0
2019-Mar-11 15:30N 51°22' E 000°46'0 0.0
2019-Mar-11 15:00N 51°22' E 000°46'0 0.0
2019-Mar-11 14:30N 51°22' E 000°46'0 0.0
2019-Mar-11 14:00N 51°22' E 000°46'0 0.0
2019-Mar-11 13:30N 51°22' E 000°46'0 0.0
2019-Mar-11 13:00N 51°22' E 000°46'0 0.0
2019-Mar-11 12:30N 51°22' E 000°46'0 0.0
2019-Mar-11 12:00N 51°22' E 000°46'0 0.0
2019-Mar-11 11:30N 51°22' E 000°46'0 0.0
2019-Mar-11 11:00N 51°22' E 000°46'0 0.0
2019-Mar-11 10:30N 51°22' E 000°46'0 0.0
2019-Mar-11 10:00N 51°22' E 000°46'0 0.0
2019-Mar-11 09:30N 51°22' E 000°46'0 0.0
2019-Mar-11 09:00N 51°22' E 000°46'0 0.0
2019-Mar-11 08:30N 51°22' E 000°46'  

Dump ship's entire track history